createdAt,value
2022-10-08T00:00:34.353Z,30.13
2022-10-08T00:01:50.784Z,30.34
2022-10-08T00:03:07.181Z,30.75
2022-10-08T00:04:23.883Z,30.65
2022-10-08T00:05:40.250Z,30.75
2022-10-08T00:06:56.626Z,30.40
2022-10-08T00:08:14.056Z,30.52
2022-10-08T00:09:30.471Z,30.57
2022-10-08T00:10:47.134Z,30.86
2022-10-08T00:12:05.070Z,30.68
2022-10-08T00:13:21.931Z,31.10
2022-10-08T00:14:39.774Z,31.44
2022-10-08T00:15:56.197Z,31.53
2022-10-08T00:17:12.863Z,31.24
2022-10-08T00:18:30.263Z,31.07
2022-10-08T00:19:46.665Z,31.00
2022-10-08T00:21:04.507Z,31.18
2022-10-08T00:22:20.926Z,31.08
2022-10-08T00:23:37.635Z,31.36
2022-10-08T00:24:55.652Z,31.44
2022-10-08T00:26:12.063Z,32.01
2022-10-08T00:27:28.440Z,31.59
2022-10-08T00:28:46.349Z,31.56
2022-10-08T00:30:04.471Z,31.42
2022-10-08T00:31:20.924Z,31.55
2022-10-08T00:32:37.288Z,31.55
2022-10-08T00:33:55.179Z,31.61
2022-10-08T00:35:13.027Z,31.65
2022-10-08T00:36:29.693Z,31.69
2022-10-08T00:37:48.180Z,31.35
2022-10-08T00:39:06.070Z,31.66
2022-10-08T00:40:22.468Z,31.68
2022-10-08T00:41:40.320Z,31.27
2022-10-08T00:42:57.073Z,31.76
2022-10-08T00:44:14.941Z,31.78
2022-10-08T00:45:32.900Z,31.68
2022-10-08T00:46:49.351Z,31.53
2022-10-08T00:48:05.746Z,31.28
2022-10-08T00:49:22.131Z,31.52
2022-10-08T00:50:38.513Z,31.56
2022-10-08T00:51:54.987Z,31.38
2022-10-08T00:53:12.835Z,31.43
2022-10-08T00:54:29.506Z,31.22
2022-10-08T00:55:45.890Z,31.36
2022-10-08T00:57:03.705Z,31.36
2022-10-08T00:58:20.154Z,31.68
2022-10-08T00:59:36.590Z,31.57
2022-10-08T01:00:53.311Z,31.79
2022-10-08T01:02:09.751Z,31.54
2022-10-08T01:03:27.558Z,31.41
2022-10-08T01:04:43.995Z,30.73
2022-10-08T01:06:00.410Z,31.46
2022-10-08T01:12:06.697Z,30.93
2022-10-08T01:13:23.077Z,31.34
2022-10-08T01:14:40.927Z,31.21
2022-10-08T01:15:57.398Z,31.80
2022-10-08T01:17:14.037Z,31.16
2022-10-08T01:18:30.407Z,31.31
2022-10-08T01:19:46.806Z,31.51
2022-10-08T01:21:03.218Z,31.03
2022-10-08T01:22:19.606Z,31.11
2022-10-08T01:23:37.711Z,31.54
2022-10-08T01:24:54.092Z,31.69
2022-10-08T01:26:10.519Z,31.74
2022-10-08T01:27:26.900Z,31.25
2022-10-08T01:28:43.350Z,31.62
2022-10-08T01:30:00.030Z,31.57
2022-10-08T01:31:16.535Z,31.57
2022-10-08T01:32:32.930Z,31.20
2022-10-08T01:33:50.747Z,31.51
2022-10-08T01:35:07.123Z,31.34
2022-10-08T01:36:25.280Z,31.84
2022-10-08T01:37:41.692Z,31.92
2022-10-08T01:38:58.033Z,31.74
2022-10-08T01:40:15.883Z,32.05
2022-10-08T01:41:33.767Z,32.44
2022-10-08T01:42:50.413Z,32.18
2022-10-08T01:44:06.793Z,32.65
2022-10-08T01:45:24.677Z,32.53
2022-10-08T01:46:41.076Z,32.49
2022-10-08T01:47:57.491Z,32.67
2022-10-08T01:49:14.141Z,33.10
2022-10-08T01:50:30.525Z,32.83
2022-10-08T01:51:48.386Z,32.44
2022-10-08T01:53:04.786Z,32.69
2022-10-08T01:54:21.167Z,32.51
2022-10-08T01:55:37.837Z,32.41
2022-10-08T01:56:54.280Z,32.39
2022-10-08T01:58:10.679Z,32.58
2022-10-08T01:59:27.063Z,32.75
2022-10-08T02:00:43.468Z,33.35
2022-10-08T02:02:01.693Z,32.77
2022-10-08T02:03:18.087Z,32.99
2022-10-08T02:04:34.461Z,33.22
2022-10-08T02:05:52.299Z,32.66
2022-10-08T02:07:08.713Z,32.95
2022-10-08T02:08:25.358Z,32.72
2022-10-08T02:09:41.741Z,32.85
2022-10-08T02:10:58.130Z,33.09
2022-10-08T02:12:16.081Z,33.42
2022-10-08T02:13:32.453Z,33.10
2022-10-08T02:14:49.114Z,33.42
2022-10-08T02:16:05.547Z,33.69
2022-10-08T02:17:23.424Z,34.04
2022-10-08T02:18:41.243Z,34.05
2022-10-08T02:19:57.646Z,34.36
2022-10-08T02:21:15.818Z,34.66
2022-10-08T02:22:32.214Z,34.72
2022-10-08T02:23:48.595Z,34.54
2022-10-08T02:25:04.974Z,34.13
2022-10-08T02:26:22.334Z,34.00
2022-10-08T02:27:39.033Z,33.85
2022-10-08T02:28:55.405Z,33.86
2022-10-08T02:30:11.816Z,33.84
2022-10-08T02:31:28.353Z,33.60
2022-10-08T02:32:45.106Z,33.91
2022-10-08T02:34:01.905Z,33.98
2022-10-08T02:35:18.366Z,34.43
2022-10-08T02:36:34.789Z,34.27
2022-10-08T02:37:51.176Z,34.68
2022-10-08T02:39:07.571Z,34.48
2022-10-08T02:40:24.257Z,34.56
2022-10-08T02:41:40.691Z,34.37
2022-10-08T02:42:57.092Z,34.15
2022-10-08T02:44:13.460Z,34.22
2022-10-08T02:45:31.351Z,34.31
2022-10-08T02:46:48.073Z,34.02
2022-10-08T02:48:04.459Z,34.26
2022-10-08T02:49:20.839Z,34.43
2022-10-08T02:50:38.692Z,34.43
2022-10-08T02:51:55.214Z,34.37
2022-10-08T02:53:11.869Z,34.63
2022-10-08T02:54:29.717Z,34.74
2022-10-08T02:55:46.096Z,34.98
2022-10-08T02:57:05.867Z,34.86
2022-10-08T02:58:23.875Z,34.81
2022-10-08T02:59:40.513Z,34.79
2022-10-08T03:00:56.980Z,34.86
2022-10-08T03:02:13.356Z,34.35
2022-10-08T03:03:31.213Z,34.50
2022-10-08T03:04:47.603Z,34.64
2022-10-08T03:06:04.267Z,34.55
2022-10-08T03:07:20.638Z,35.06
2022-10-08T03:08:37.174Z,34.81
2022-10-08T03:09:54.989Z,34.71
2022-10-08T03:11:11.396Z,34.78
2022-10-08T03:12:28.056Z,35.11
2022-10-08T03:13:44.573Z,34.75
2022-10-08T03:15:00.936Z,34.89
2022-10-08T03:16:18.313Z,34.78
2022-10-08T03:17:34.733Z,35.21
2022-10-08T03:18:51.418Z,35.27
2022-10-08T03:20:07.939Z,35.10
2022-10-08T03:21:25.790Z,35.01
2022-10-08T03:22:42.198Z,35.19
2022-10-08T03:23:58.597Z,35.17
2022-10-08T03:25:15.238Z,35.23
2022-10-08T03:26:31.706Z,35.17
2022-10-08T03:27:48.091Z,35.27
2022-10-08T03:29:05.445Z,35.13
2022-10-08T03:30:21.817Z,35.08
2022-10-08T03:31:38.538Z,34.92
2022-10-08T03:32:54.921Z,34.77
2022-10-08T03:34:11.338Z,34.56
2022-10-08T03:35:27.704Z,34.09
2022-10-08T03:36:45.575Z,33.99
2022-10-08T03:38:02.237Z,33.44
2022-10-08T03:39:18.642Z,33.70
2022-10-08T03:40:35.046Z,33.40
2022-10-08T03:41:51.443Z,33.28
2022-10-08T03:43:07.823Z,32.76
2022-10-08T03:44:24.505Z,32.58
2022-10-08T03:45:42.386Z,32.25
2022-10-08T03:47:00.196Z,32.31
2022-10-08T03:48:16.567Z,32.41
2022-10-08T03:49:32.955Z,32.38
2022-10-08T03:50:49.645Z,32.13
2022-10-08T03:52:06.048Z,32.15
2022-10-08T03:53:22.418Z,32.18
2022-10-08T03:54:40.270Z,32.11
2022-10-08T03:55:56.679Z,31.82
2022-10-08T03:57:13.349Z,30.94
2022-10-08T03:58:29.769Z,31.03
2022-10-08T03:59:46.168Z,30.87
2022-10-08T04:01:02.579Z,31.02
2022-10-08T04:02:19.027Z,30.48
2022-10-08T04:03:35.758Z,30.51
2022-10-08T04:04:53.661Z,30.35
2022-10-08T04:06:10.041Z,30.39
2022-10-08T04:07:26.813Z,29.98
2022-10-08T04:08:43.212Z,30.37
2022-10-08T04:09:59.904Z,30.43
2022-10-08T04:11:16.312Z,30.61
2022-10-08T04:12:32.713Z,30.76
2022-10-08T04:13:50.542Z,30.56
2022-10-08T04:15:06.987Z,30.60
2022-10-08T04:16:23.625Z,30.73
2022-10-08T04:17:40.035Z,30.76
2022-10-08T04:18:56.445Z,30.56
2022-10-08T04:20:14.298Z,30.80
2022-10-08T04:21:30.665Z,30.74
2022-10-08T04:22:48.487Z,30.13
2022-10-08T04:24:06.065Z,30.09
2022-10-08T04:25:22.506Z,29.91
2022-10-08T04:26:40.321Z,29.66
2022-10-08T04:27:56.709Z,29.53
2022-10-08T04:29:13.343Z,29.39
2022-10-08T04:30:31.216Z,29.20
2022-10-08T04:31:47.588Z,29.33
2022-10-08T04:33:05.432Z,29.28
2022-10-08T04:34:23.256Z,29.28
2022-10-08T04:35:39.958Z,29.02
2022-10-08T04:36:57.778Z,29.41
2022-10-08T04:38:14.169Z,29.21
2022-10-08T04:39:30.550Z,29.34
2022-10-08T04:40:47.109Z,28.85
2022-10-08T04:42:03.749Z,29.08
2022-10-08T04:43:21.599Z,28.85
2022-10-08T04:44:39.428Z,29.38
2022-10-08T04:45:57.380Z,29.10
2022-10-08T04:47:13.731Z,28.98
2022-10-08T04:48:30.381Z,28.92
2022-10-08T04:49:46.766Z,28.76
2022-10-08T04:51:06.816Z,28.84
2022-10-08T04:52:25.870Z,28.47
2022-10-08T04:53:42.253Z,28.28
2022-10-08T04:54:58.907Z,28.20
2022-10-08T04:56:15.393Z,28.29
2022-10-08T04:57:31.755Z,28.54
2022-10-08T04:58:49.597Z,28.48
2022-10-08T05:00:18.160Z,28.49
2022-10-08T05:01:28.761Z,27.83
2022-10-08T05:02:45.595Z,28.12
2022-10-08T05:04:02.247Z,27.83
2022-10-08T05:05:18.625Z,28.23
2022-10-08T05:06:36.588Z,27.81
2022-10-08T05:07:53.326Z,28.21
2022-10-08T05:09:11.168Z,27.86
2022-10-08T05:10:27.540Z,27.50
2022-10-08T05:11:43.971Z,27.27
2022-10-08T05:13:00.347Z,26.77
2022-10-08T05:14:17.013Z,26.74
2022-10-08T05:15:33.479Z,26.18
2022-10-08T05:16:51.349Z,26.25
2022-10-08T05:18:07.731Z,26.41
2022-10-08T05:19:24.121Z,26.26
2022-10-08T05:20:40.815Z,26.25
2022-10-08T05:21:57.225Z,26.12
2022-10-08T05:23:15.063Z,26.39
2022-10-08T05:24:31.441Z,25.94
2022-10-08T05:25:47.861Z,26.09
2022-10-08T05:27:04.521Z,26.04
2022-10-08T05:28:20.937Z,26.36
2022-10-08T05:29:37.330Z,26.25
2022-10-08T05:30:53.999Z,26.15
2022-10-08T05:32:10.375Z,25.81
2022-10-08T05:33:27.024Z,25.61
2022-10-08T05:34:43.414Z,25.45
2022-10-08T05:35:59.810Z,24.95
2022-10-08T05:37:16.226Z,25.54
2022-10-08T05:38:34.990Z,25.38
2022-10-08T05:39:51.735Z,25.10
2022-10-08T05:41:09.615Z,25.08
2022-10-08T05:42:27.428Z,25.00
2022-10-08T05:43:43.811Z,24.94
2022-10-08T05:45:00.476Z,24.64
2022-10-08T05:46:16.892Z,24.57
2022-10-08T05:47:34.730Z,24.51
2022-10-08T05:48:52.559Z,24.72
2022-10-08T05:50:08.999Z,24.64
2022-10-08T05:51:25.627Z,24.18
2022-10-08T05:52:42.018Z,24.50
2022-10-08T05:53:59.844Z,25.01
2022-10-08T05:55:17.720Z,24.95
2022-10-08T05:56:35.552Z,24.20
2022-10-08T05:57:52.223Z,23.74
2022-10-08T05:59:10.040Z,23.88
2022-10-08T06:00:28.053Z,24.02
2022-10-08T06:01:44.439Z,23.99
2022-10-08T06:03:02.339Z,23.81
2022-10-08T06:04:19.015Z,23.05
2022-10-08T06:05:36.934Z,23.45
2022-10-08T06:06:53.314Z,22.81
2022-10-08T06:08:09.701Z,22.72
2022-10-08T06:09:26.084Z,22.52
2022-10-08T06:10:44.250Z,22.46
2022-10-08T06:12:00.626Z,22.17
2022-10-08T06:13:17.014Z,22.09
2022-10-08T06:14:33.421Z,21.74
2022-10-08T06:15:49.855Z,21.97
2022-10-08T06:17:06.198Z,21.59
2022-10-08T06:18:22.576Z,21.60
2022-10-08T06:19:38.976Z,21.62
2022-10-08T06:20:55.365Z,21.28
2022-10-08T06:22:12.007Z,21.00
2022-10-08T06:23:29.858Z,20.81
2022-10-08T06:24:46.263Z,21.05
2022-10-08T06:26:04.111Z,20.85
2022-10-08T06:27:20.489Z,20.53
2022-10-08T06:28:37.196Z,20.33
2022-10-08T06:29:53.632Z,19.75
2022-10-08T06:31:10.068Z,20.04
2022-10-08T06:32:27.917Z,20.49
2022-10-08T06:33:44.320Z,20.16
2022-10-08T06:35:02.447Z,19.81
2022-10-08T06:36:20.284Z,19.32
2022-10-08T06:37:36.651Z,19.23
2022-10-08T06:38:54.519Z,19.14
2022-10-08T06:40:10.924Z,18.74
2022-10-08T06:41:29.041Z,18.70
2022-10-08T06:42:45.751Z,18.35
2022-10-08T06:44:03.724Z,18.31
2022-10-08T06:45:21.608Z,18.37
2022-10-08T06:46:39.504Z,18.58
2022-10-08T06:47:57.633Z,18.89
2022-10-08T06:49:15.467Z,18.53
2022-10-08T06:50:33.430Z,18.10
2022-10-08T06:51:51.251Z,17.97
2022-10-08T06:53:07.654Z,17.91
2022-10-08T06:54:24.381Z,17.48
2022-10-08T06:55:42.328Z,17.36
2022-10-08T06:57:00.129Z,17.20
2022-10-08T06:58:17.976Z,16.58
2022-10-08T06:59:34.429Z,17.11
2022-10-08T07:00:52.584Z,16.73
2022-10-08T07:02:10.513Z,16.58
2022-10-08T07:03:28.407Z,16.67
2022-10-08T07:04:46.266Z,16.25
2022-10-08T07:06:04.088Z,16.02
2022-10-08T07:07:20.778Z,15.70
2022-10-08T07:08:38.622Z,15.54
2022-10-08T07:09:56.441Z,15.90
2022-10-08T07:11:14.283Z,15.78
2022-10-08T07:12:32.152Z,15.62
2022-10-08T07:13:48.802Z,15.25
2022-10-08T07:15:06.624Z,15.42
2022-10-08T07:16:24.569Z,15.49
2022-10-08T07:17:42.846Z,15.13
2022-10-08T07:19:00.705Z,15.29
2022-10-08T07:20:17.330Z,14.79
2022-10-08T07:21:35.184Z,14.56
2022-10-08T07:22:51.606Z,14.14
2022-10-08T07:24:09.456Z,13.83
2022-10-08T07:25:27.276Z,13.48
2022-10-08T07:26:45.405Z,13.26
2022-10-08T07:28:01.863Z,13.35
2022-10-08T07:29:19.716Z,13.10
2022-10-08T07:30:37.547Z,12.83
2022-10-08T07:31:55.439Z,12.45
2022-10-08T07:33:13.282Z,12.62
2022-10-08T07:34:29.705Z,12.79
2022-10-08T07:35:47.530Z,12.79
2022-10-08T07:37:05.417Z,12.27
2022-10-08T07:38:23.018Z,12.01
2022-10-08T07:39:40.959Z,11.68
2022-10-08T07:40:59.299Z,12.70
2022-10-08T07:42:17.140Z,11.92
2022-10-08T07:43:33.519Z,11.87
2022-10-08T07:44:51.440Z,12.31
2022-10-08T07:46:09.320Z,12.22
2022-10-08T07:47:27.153Z,11.76
2022-10-08T07:48:44.971Z,11.51
2022-10-08T07:50:02.906Z,11.41
2022-10-08T07:51:19.293Z,11.53
2022-10-08T07:52:37.192Z,11.02
2022-10-08T07:53:57.765Z,10.52
2022-10-08T07:55:17.743Z,10.14
2022-10-08T07:56:35.553Z,10.09
2022-10-08T07:57:53.445Z,10.04
2022-10-08T07:59:11.277Z,9.95
2022-10-08T08:00:29.198Z,9.94
2022-10-08T08:01:45.943Z,9.84
2022-10-08T08:03:03.807Z,10.15
2022-10-08T08:04:20.194Z,9.76
2022-10-08T08:05:38.035Z,9.87
2022-10-08T08:06:55.900Z,9.41
2022-10-08T08:08:13.758Z,9.43
2022-10-08T08:09:31.599Z,9.46
2022-10-08T08:10:49.465Z,8.95
2022-10-08T08:12:07.351Z,9.05
2022-10-08T08:13:25.476Z,8.79
2022-10-08T08:14:41.858Z,9.01
2022-10-08T08:15:59.733Z,8.81
2022-10-08T08:17:17.620Z,8.30
2022-10-08T08:18:35.469Z,8.52
2022-10-08T08:19:52.119Z,7.95
2022-10-08T08:21:09.982Z,7.93
2022-10-08T08:22:27.849Z,7.29
2022-10-08T08:23:44.241Z,7.05
2022-10-08T08:25:02.060Z,7.20
2022-10-08T08:26:20.215Z,6.49
2022-10-08T08:27:38.064Z,6.97
2022-10-08T08:28:55.933Z,7.06
2022-10-08T08:30:13.764Z,7.25
2022-10-08T08:31:31.685Z,7.16
2022-10-08T08:32:48.798Z,6.78
2022-10-08T08:34:06.942Z,6.21
2022-10-08T08:35:24.756Z,6.22
2022-10-08T08:36:42.646Z,6.08
2022-10-08T08:37:59.016Z,5.67
2022-10-08T08:39:17.146Z,6.09
2022-10-08T08:40:35.013Z,5.79
2022-10-08T08:41:52.875Z,5.59
2022-10-08T08:43:10.710Z,5.32
2022-10-08T08:44:28.581Z,5.34
2022-10-08T08:45:47.404Z,4.94
2022-10-08T08:47:05.402Z,5.29
2022-10-08T08:48:23.234Z,5.43
2022-10-08T08:49:41.105Z,4.88
2022-10-08T08:50:58.930Z,4.71
2022-10-08T08:52:17.088Z,5.34
2022-10-08T08:53:34.922Z,5.01
2022-10-08T08:54:52.789Z,4.71
2022-10-08T08:56:10.682Z,4.22
2022-10-08T08:57:28.532Z,3.99
2022-10-08T08:58:46.354Z,4.11
2022-10-08T09:00:04.208Z,4.21
2022-10-08T09:01:20.722Z,4.41
2022-10-08T09:02:38.563Z,4.20
2022-10-08T09:03:55.214Z,4.56
2022-10-08T09:05:13.125Z,4.34
2022-10-08T09:06:31.557Z,4.81
2022-10-08T09:07:49.410Z,4.44
2022-10-08T09:09:07.229Z,4.00
2022-10-08T09:10:23.943Z,3.71
2022-10-08T09:11:41.903Z,3.90
2022-10-08T09:12:59.752Z,3.87
2022-10-08T09:14:18.080Z,3.23
2022-10-08T09:15:35.943Z,3.13
2022-10-08T09:16:54.187Z,3.22
2022-10-08T09:18:10.612Z,2.64
2022-10-08T09:19:28.455Z,2.91
2022-10-08T09:20:44.842Z,2.54
2022-10-08T09:22:02.738Z,1.92
2022-10-08T09:23:19.402Z,1.51
2022-10-08T09:24:37.278Z,1.07
2022-10-08T09:25:53.672Z,1.48
2022-10-08T09:27:11.505Z,0.75
2022-10-08T09:28:29.440Z,0.90
2022-10-08T09:29:46.207Z,0.85
2022-10-08T09:31:08.173Z,0.80
2022-10-08T09:32:26.781Z,0.74
2022-10-08T09:33:44.625Z,0.30
2022-10-08T09:35:02.476Z,0.16
2022-10-08T09:36:20.596Z,-0.04
2022-10-08T09:37:38.418Z,0.22
2022-10-08T09:38:54.806Z,-0.15
2022-10-08T09:40:12.670Z,0.01
2022-10-08T09:41:30.568Z,-0.08
2022-10-08T09:42:48.931Z,-0.06
2022-10-08T09:44:06.898Z,0.21
2022-10-08T09:45:24.730Z,0.38
2022-10-08T09:46:42.719Z,0.93
2022-10-08T09:48:00.562Z,0.77
2022-10-08T09:49:17.211Z,0.64
2022-10-08T09:50:35.083Z,0.86
2022-10-08T09:51:52.931Z,0.65
2022-10-08T09:53:10.771Z,0.74
2022-10-08T09:54:28.103Z,0.03
2022-10-08T09:55:46.263Z,0.81
2022-10-08T09:57:04.113Z,0.38
2022-10-08T09:58:21.945Z,-0.21
2022-10-08T09:59:39.835Z,-0.49
2022-10-08T10:00:57.702Z,0.01
2022-10-08T10:02:15.536Z,-0.26
2022-10-08T10:03:32.001Z,-0.40
2022-10-08T10:04:49.888Z,-0.64
2022-10-08T10:06:07.742Z,-0.32
2022-10-08T10:07:25.588Z,-0.45
2022-10-08T10:08:43.689Z,-0.76
2022-10-08T10:10:01.587Z,-0.85
2022-10-08T10:11:19.419Z,-1.20
2022-10-08T10:12:37.270Z,-0.83
2022-10-08T10:13:55.123Z,-1.30
2022-10-08T10:15:13.294Z,-0.85
2022-10-08T10:16:31.176Z,-1.18
2022-10-08T10:17:49.072Z,-1.30
2022-10-08T10:19:06.895Z,-1.15
2022-10-08T10:20:24.777Z,-0.68
2022-10-08T10:21:42.605Z,-1.13
2022-10-08T10:23:00.497Z,-1.07
2022-10-08T10:24:18.337Z,-0.55
2022-10-08T10:25:36.224Z,-0.30
2022-10-08T10:26:54.086Z,-0.51
2022-10-08T10:28:11.956Z,-0.29
2022-10-08T10:29:29.907Z,-0.67
2022-10-08T10:30:47.816Z,-0.78
2022-10-08T10:32:05.620Z,-0.54
2022-10-08T10:33:23.490Z,-1.03
2022-10-08T10:34:41.399Z,-1.66
2022-10-08T10:35:59.260Z,-1.24
2022-10-08T10:37:17.850Z,-1.21
2022-10-08T10:38:39.534Z,-0.94
2022-10-08T10:39:58.411Z,-1.03
2022-10-08T10:41:16.268Z,-0.89
2022-10-08T10:42:34.082Z,-1.01
2022-10-08T10:43:52.203Z,-1.05
2022-10-08T10:45:10.077Z,-1.40
2022-10-08T10:46:28.005Z,-1.45
2022-10-08T10:47:45.904Z,-0.97
2022-10-08T10:49:03.764Z,-1.78
2022-10-08T10:50:21.954Z,-2.25
2022-10-08T10:51:39.774Z,-2.30
2022-10-08T10:52:57.605Z,-2.38
2022-10-08T10:54:15.472Z,-2.21
2022-10-08T10:55:33.326Z,-2.02
2022-10-08T10:56:53.027Z,-2.15
2022-10-08T10:58:10.890Z,-2.27
2022-10-08T10:59:28.783Z,-1.73
2022-10-08T11:00:46.608Z,-1.51
2022-10-08T11:02:04.491Z,-1.43
2022-10-08T11:03:22.316Z,-1.55
2022-10-08T11:04:40.202Z,-1.71
2022-10-08T11:05:58.031Z,-1.37
2022-10-08T11:07:15.921Z,-1.51
2022-10-08T11:08:33.752Z,-1.33
2022-10-08T11:09:51.684Z,-1.96
2022-10-08T11:11:09.523Z,-1.00
2022-10-08T11:12:27.652Z,-1.47
2022-10-08T11:13:45.475Z,-1.26
2022-10-08T11:15:03.385Z,-1.44
2022-10-08T11:16:21.225Z,-1.33
2022-10-08T11:17:39.064Z,-1.47
2022-10-08T11:18:55.725Z,-0.98
2022-10-08T11:20:13.589Z,-1.44
2022-10-08T11:21:31.437Z,-1.67
2022-10-08T11:22:49.806Z,-0.80
2022-10-08T11:24:07.898Z,-1.40
2022-10-08T11:25:26.038Z,-1.28
2022-10-08T11:26:46.411Z,-0.97
2022-10-08T11:28:04.285Z,-1.11
2022-10-08T11:29:22.128Z,-1.39
2022-10-08T11:30:40.164Z,-0.76
2022-10-08T11:31:58.001Z,-0.66
2022-10-08T11:33:15.830Z,-1.37
2022-10-08T11:34:33.674Z,-0.80
2022-10-08T11:35:51.573Z,-1.19
2022-10-08T11:37:08.273Z,-1.38
2022-10-08T11:38:26.094Z,-1.54
2022-10-08T11:39:43.995Z,-1.32
2022-10-08T11:41:01.826Z,-2.14
2022-10-08T11:42:19.664Z,-1.92
2022-10-08T11:43:36.328Z,-2.09
2022-10-08T11:44:54.212Z,-2.21
2022-10-08T11:46:12.094Z,-2.84
2022-10-08T11:47:29.917Z,-2.64
2022-10-08T11:48:47.740Z,-2.97
2022-10-08T11:50:05.909Z,-2.98
2022-10-08T11:51:23.738Z,-3.57
2022-10-08T11:52:41.589Z,-3.40
2022-10-08T11:53:59.450Z,-3.23
2022-10-08T11:55:17.309Z,-3.47
2022-10-08T11:56:35.411Z,-3.20
2022-10-08T11:58:07.293Z,-3.27
2022-10-08T11:59:15.992Z,-2.59
2022-10-08T12:00:33.842Z,-2.45
2022-10-08T12:01:51.664Z,-2.44
2022-10-08T12:03:10.384Z,-2.25
2022-10-08T12:04:28.267Z,-2.18
2022-10-08T12:05:50.188Z,-1.98
2022-10-08T12:07:08.293Z,-1.98
2022-10-08T12:08:26.135Z,-2.24
2022-10-08T12:09:44.302Z,-1.94
2022-10-08T12:11:02.156Z,-2.57
2022-10-08T12:12:19.997Z,-2.80
2022-10-08T12:13:37.847Z,-2.46
2022-10-08T12:14:55.722Z,-2.18
2022-10-08T12:16:13.976Z,-2.33
2022-10-08T12:17:31.841Z,-1.75
2022-10-08T12:18:49.751Z,-2.16
2022-10-08T12:20:07.570Z,-2.17
2022-10-08T12:21:25.461Z,-1.95
2022-10-08T12:22:43.602Z,-2.16
2022-10-08T12:24:01.452Z,-2.18
2022-10-08T12:25:19.288Z,-1.18
2022-10-08T12:26:37.177Z,-1.44
2022-10-08T12:27:55.035Z,-1.48
2022-10-08T12:29:11.704Z,-1.35
2022-10-08T12:30:29.536Z,-1.64
2022-10-08T12:31:49.678Z,-1.49
2022-10-08T12:33:07.636Z,-1.59
2022-10-08T12:34:24.960Z,-1.93
2022-10-08T12:35:42.800Z,-1.92
2022-10-08T12:37:02.005Z,-1.55
2022-10-08T12:38:19.888Z,-1.97
2022-10-08T12:39:37.747Z,-2.31
2022-10-08T12:40:55.570Z,-2.15
2022-10-08T12:42:13.461Z,-1.98
2022-10-08T12:43:31.310Z,-2.29
2022-10-08T12:44:49.172Z,-2.13
2022-10-08T12:46:05.913Z,-1.74
2022-10-08T12:47:23.773Z,-2.03
2022-10-08T12:48:41.605Z,-2.03
2022-10-08T12:49:59.458Z,-2.47
2022-10-08T12:51:17.304Z,-2.31
2022-10-08T12:52:35.465Z,-1.58
2022-10-08T12:53:52.767Z,-2.42
2022-10-08T12:55:10.627Z,-2.09
2022-10-08T12:56:28.456Z,-1.78
2022-10-08T12:57:46.619Z,-2.52
2022-10-08T12:59:05.890Z,-2.18
2022-10-08T13:00:24.322Z,-2.37
2022-10-08T13:01:42.192Z,-2.40
2022-10-08T13:03:00.091Z,-2.31
2022-10-08T13:04:17.933Z,-2.78
2022-10-08T13:05:34.320Z,-2.65
2022-10-08T13:06:52.160Z,-2.62
2022-10-08T13:08:10.560Z,-2.56
2022-10-08T13:09:28.374Z,-2.52
2022-10-08T13:10:45.044Z,-2.12
2022-10-08T13:12:03.837Z,-2.35
2022-10-08T13:13:21.889Z,-2.12
2022-10-08T13:14:39.754Z,-2.94
2022-10-08T13:15:57.620Z,-2.68
2022-10-08T13:17:15.706Z,-2.86
2022-10-08T13:18:33.607Z,-3.28
2022-10-08T13:19:51.456Z,-3.44
2022-10-08T13:21:09.290Z,-3.93
2022-10-08T13:22:27.112Z,-3.75
2022-10-08T13:23:44.740Z,-3.98
2022-10-08T13:25:02.608Z,-4.08
2022-10-08T13:26:20.451Z,-4.47
2022-10-08T13:27:38.294Z,-4.34
2022-10-08T13:29:00.496Z,-4.35
2022-10-08T13:30:18.852Z,-4.61
2022-10-08T13:31:36.753Z,-4.93
2022-10-08T13:32:54.635Z,-4.88
2022-10-08T13:34:12.456Z,-4.66
2022-10-08T13:35:30.597Z,-4.51
2022-10-08T13:36:47.407Z,-5.09
2022-10-08T13:38:05.226Z,-4.82
2022-10-08T13:39:23.090Z,-5.12
2022-10-08T13:40:40.973Z,-5.03
2022-10-08T13:41:58.827Z,-5.32
2022-10-08T13:43:16.673Z,-5.07
2022-10-08T13:44:34.518Z,-4.98
2022-10-08T13:45:52.877Z,-5.52
2022-10-08T13:47:10.732Z,-5.71
2022-10-08T13:48:28.553Z,-6.26
2022-10-08T13:49:46.393Z,-6.37
2022-10-08T13:51:04.279Z,-6.21
2022-10-08T13:52:20.920Z,-6.34
2022-10-08T13:53:38.743Z,-6.65
2022-10-08T13:54:56.594Z,-6.91
2022-10-08T13:56:14.464Z,-6.53
2022-10-08T13:57:32.303Z,-6.55
2022-10-08T13:58:48.958Z,-6.84
2022-10-08T14:00:06.816Z,-7.01
2022-10-08T14:01:24.729Z,-6.98
2022-10-08T14:02:42.576Z,-6.93
2022-10-08T14:04:00.436Z,-6.91
2022-10-08T14:05:18.547Z,-6.85
2022-10-08T14:06:36.510Z,-7.06
2022-10-08T14:07:54.360Z,-7.19
2022-10-08T14:09:12.200Z,-7.03
2022-10-08T14:10:30.013Z,-7.27
2022-10-08T14:11:47.865Z,-7.37
2022-10-08T14:13:05.690Z,-7.09
2022-10-08T14:14:23.553Z,-7.34
2022-10-08T14:15:41.407Z,-7.77
2022-10-08T14:16:57.786Z,-8.01
2022-10-08T14:18:15.922Z,-7.75
2022-10-08T14:19:33.760Z,-8.27
2022-10-08T14:20:51.621Z,-8.21
2022-10-08T14:22:09.455Z,-8.10
2022-10-08T14:23:27.344Z,-7.75
2022-10-08T14:24:43.988Z,-7.90
2022-10-08T14:26:01.845Z,-8.02
2022-10-08T14:27:19.689Z,-8.36
2022-10-08T14:28:40.240Z,-8.71
2022-10-08T14:29:58.077Z,-8.84
2022-10-08T14:31:16.233Z,-9.05
2022-10-08T14:32:34.069Z,-9.00
2022-10-08T14:33:51.966Z,-8.99
2022-10-08T14:35:09.821Z,-9.46
2022-10-08T14:36:27.679Z,-9.84
2022-10-08T14:37:46.114Z,-9.58
2022-10-08T14:39:04.122Z,-9.30
2022-10-08T14:40:20.532Z,-9.63
2022-10-08T14:41:38.383Z,-9.56
2022-10-08T14:42:56.262Z,-9.71
2022-10-08T14:44:14.383Z,-9.56
2022-10-08T14:45:32.231Z,-9.31
2022-10-08T14:46:50.156Z,-9.51
2022-10-08T14:48:07.996Z,-9.75
2022-10-08T14:49:25.857Z,-9.79
2022-10-08T14:50:43.946Z,-9.52
2022-10-08T14:52:01.843Z,-9.82
2022-10-08T14:53:19.669Z,-9.91
2022-10-08T14:54:37.528Z,-9.89
2022-10-08T14:56:11.421Z,-10.14
2022-10-08T14:57:18.076Z,-10.07
2022-10-08T14:58:35.909Z,-10.40
2022-10-08T14:59:53.793Z,-10.44
2022-10-08T15:01:11.618Z,-10.32
2022-10-08T15:02:29.473Z,-10.85
2022-10-08T15:03:46.206Z,-10.46
2022-10-08T15:05:04.099Z,-10.71
2022-10-08T15:06:20.478Z,-10.63
2022-10-08T15:07:36.889Z,-10.91
2022-10-08T15:08:54.711Z,-11.31
2022-10-08T15:10:12.891Z,-11.24
2022-10-08T15:11:30.720Z,-11.28
2022-10-08T15:12:48.829Z,-11.32
2022-10-08T15:14:06.884Z,-11.13
2022-10-08T15:15:25.258Z,-11.00
2022-10-08T15:16:41.970Z,-11.27
2022-10-08T15:17:59.798Z,-11.29
2022-10-08T15:19:21.133Z,-11.25
2022-10-08T15:20:40.385Z,-11.13
2022-10-08T15:21:58.228Z,-11.17
2022-10-08T15:23:14.902Z,-11.20
2022-10-08T15:24:32.718Z,-11.11
2022-10-08T15:25:50.626Z,-10.95
2022-10-08T15:27:06.988Z,-10.90
2022-10-08T15:28:24.900Z,-10.91
2022-10-08T15:29:41.548Z,-11.16
2022-10-08T15:30:59.430Z,-11.19
2022-10-08T15:32:17.268Z,-11.28
2022-10-08T15:33:35.110Z,-11.61
2022-10-08T15:34:52.972Z,-11.62
2022-10-08T15:36:10.810Z,-11.53
2022-10-08T15:37:28.611Z,-11.63
2022-10-08T15:38:46.474Z,-11.57
2022-10-08T15:40:04.408Z,-11.49
2022-10-08T15:41:22.523Z,-11.96
2022-10-08T15:42:40.362Z,-12.19
2022-10-08T15:43:58.204Z,-12.07
2022-10-08T15:45:16.065Z,-12.11
2022-10-08T15:46:33.947Z,-12.12
2022-10-08T15:47:51.765Z,-12.21
2022-10-08T15:49:09.604Z,-11.92
2022-10-08T15:50:27.435Z,-12.28
2022-10-08T15:51:45.295Z,-12.27
2022-10-08T15:53:01.929Z,-12.59
2022-10-08T15:54:19.256Z,-12.87
2022-10-08T15:55:37.122Z,-13.16
2022-10-08T15:56:54.948Z,-13.54
2022-10-08T15:58:23.138Z,-13.72
2022-10-08T15:59:35.560Z,-13.63
2022-10-08T16:00:53.417Z,-13.77
2022-10-08T16:02:16.345Z,-13.87
2022-10-08T16:03:34.051Z,-13.77
2022-10-08T16:04:50.701Z,-14.11
2022-10-08T16:06:08.561Z,-13.66
2022-10-08T16:07:26.411Z,-14.15
2022-10-08T16:08:44.250Z,-14.31
2022-10-08T16:10:02.117Z,-14.36
2022-10-08T16:11:19.951Z,-14.38
2022-10-08T16:12:37.816Z,-14.64
2022-10-08T16:13:55.211Z,-14.65
2022-10-08T16:15:13.052Z,-15.19
2022-10-08T16:16:31.346Z,-15.12
2022-10-08T16:17:49.167Z,-16.00
2022-10-08T16:19:07.014Z,-16.43
2022-10-08T16:20:24.865Z,-15.96
2022-10-08T16:21:42.750Z,-16.31
2022-10-08T16:23:00.845Z,-16.66
2022-10-08T16:24:18.713Z,-16.28
2022-10-08T16:25:36.546Z,-16.91
2022-10-08T16:26:54.436Z,-17.48
2022-10-08T16:28:10.853Z,-17.40
2022-10-08T16:29:28.960Z,-17.60
2022-10-08T16:30:47.020Z,-17.42
2022-10-08T16:32:04.829Z,-17.65
2022-10-08T16:33:22.658Z,-17.31
2022-10-08T16:34:44.158Z,-17.08
2022-10-08T16:36:03.143Z,-17.69
2022-10-08T16:37:20.978Z,-17.70
2022-10-08T16:38:38.800Z,-17.96
2022-10-08T16:39:56.652Z,-18.10
2022-10-08T16:41:14.813Z,-18.08
2022-10-08T16:42:32.690Z,-18.54